sensor_id;sensor_type;location;lat;lon;timestamp;pressure;altitude;pressure_sealevel;temperature;humidity
49055;BME280;35405;52.344;14.530;2023-02-17T07:06:01;100683.16;;;6.08;100.00
49055;BME280;35405;52.344;14.530;2023-02-17T07:08:26;100690.16;;;6.09;100.00
49055;BME280;35405;52.344;14.530;2023-02-17T07:10:51;100685.56;;;6.09;100.00
49055;BME280;35405;52.344;14.530;2023-02-17T07:13:16;100683.16;;;6.08;100.00
49055;BME280;35405;52.344;14.530;2023-02-17T07:15:42;100685.84;;;6.13;100.00
49055;BME280;35405;52.344;14.530;2023-02-17T07:18:07;100682.09;;;6.14;100.00
49055;BME280;35405;52.344;14.530;2023-02-17T07:20:33;100676.69;;;6.14;100.00
49055;BME280;35405;52.344;14.530;2023-02-17T07:22:59;100680.22;;;6.14;100.00
49055;BME280;35405;52.344;14.530;2023-02-17T07:25:24;100675.63;;;6.15;100.00
49055;BME280;35405;52.344;14.530;2023-02-17T07:27:50;100679.94;;;6.16;100.00
49055;BME280;35405;52.344;14.530;2023-02-17T07:30:15;100659.13;;;6.16;100.00
49055;BME280;35405;52.344;14.530;2023-02-17T07:32:41;100654.56;;;6.22;100.00
49055;BME280;35405;52.344;14.530;2023-02-17T07:35:06;100657.28;;;6.22;100.00
49055;BME280;35405;52.344;14.530;2023-02-17T07:37:32;100657.03;;;6.24;100.00
49055;BME280;35405;52.344;14.530;2023-02-17T07:39:58;100653.00;;;6.26;100.00
49055;BME280;35405;52.344;14.530;2023-02-17T07:42:23;100657.31;;;6.27;100.00
49055;BME280;35405;52.344;14.530;2023-02-17T07:44:48;100664.88;;;6.30;100.00
49055;BME280;35405;52.344;14.530;2023-02-17T07:47:13;100654.09;;;6.30;100.00
49055;BME280;35405;52.344;14.530;2023-02-17T07:49:38;100657.34;;;6.32;100.00
49055;BME280;35405;52.344;14.530;2023-02-17T07:52:04;100659.75;;;6.34;100.00
49055;BME280;35405;52.344;14.530;2023-02-17T07:54:29;100667.34;;;6.37;100.00
49055;BME280;35405;52.344;14.530;2023-02-17T07:56:54;100664.09;;;6.35;100.00
49055;BME280;35405;52.344;14.530;2023-02-17T07:59:19;100674.09;;;6.39;100.00
49055;BME280;35405;52.344;14.530;2023-02-17T08:01:44;100662.22;;;6.40;100.00
49055;BME280;35405;52.344;14.530;2023-02-17T08:04:10;100660.34;;;6.41;100.00
49055;BME280;35405;52.344;14.530;2023-02-17T08:06:36;100659.50;;;6.40;100.00
49055;BME280;35405;52.344;14.530;2023-02-17T08:09:01;100650.06;;;6.43;100.00
49055;BME280;35405;52.344;14.530;2023-02-17T08:11:45;100656.03;;;6.45;100.00
49055;BME280;35405;52.344;14.530;2023-02-17T08:14:29;100655.75;;;6.47;100.00
49055;BME280;35405;52.344;14.530;2023-02-17T08:16:56;100645.78;;;6.52;100.00
49055;BME280;35405;52.344;14.530;2023-02-17T08:19:21;100638.50;;;6.58;100.00
49055;BME280;35405;52.344;14.530;2023-02-17T08:21:47;100636.88;;;6.57;100.00
49055;BME280;35405;52.344;14.530;2023-02-17T08:24:12;100641.75;;;6.60;100.00
49055;BME280;35405;52.344;14.530;2023-02-17T08:26:39;100629.88;;;6.66;100.00
49055;BME280;35405;52.344;14.530;2023-02-17T08:29:04;100644.22;;;6.72;100.00
49055;BME280;35405;52.344;14.530;2023-02-17T08:31:30;100637.75;;;6.78;100.00
49055;BME280;35405;52.344;14.530;2023-02-17T08:33:56;100637.75;;;6.78;100.00
49055;BME280;35405;52.344;14.530;2023-02-17T08:36:22;100628.56;;;6.79;100.00
49055;BME280;35405;52.344;14.530;2023-02-17T08:38:48;100642.91;;;6.84;100.00
49055;BME280;35405;52.344;14.530;2023-02-17T08:41:19;100631.53;;;6.87;100.00
49055;BME280;35405;52.344;14.530;2023-02-17T08:43:45;100637.25;;;6.86;100.00
49055;BME280;35405;52.344;14.530;2023-02-17T08:46:11;100628.28;;;6.85;100.00
49055;BME280;35405;52.344;14.530;2023-02-17T08:48:36;100634.28;;;6.93;100.00
49055;BME280;35405;52.344;14.530;2023-02-17T08:51:02;100622.63;;;6.97;100.00
49055;BME280;35405;52.344;14.530;2023-02-17T08:53:27;100629.66;;;6.93;100.00
49055;BME280;35405;52.344;14.530;2023-02-17T08:55:53;100621.28;;;6.95;100.00
49055;BME280;35405;52.344;14.530;2023-02-17T08:58:18;100618.03;;;6.98;100.00
49055;BME280;35405;52.344;14.530;2023-02-17T09:00:43;100616.16;;;7.03;100.00
49055;BME280;35405;52.344;14.530;2023-02-17T09:03:08;100609.97;;;7.13;100.00
49055;BME280;35405;52.344;14.530;2023-02-17T09:05:34;100605.59;;;7.12;100.00
49055;BME280;35405;52.344;14.530;2023-02-17T09:08:00;100609.69;;;7.20;100.00
49055;BME280;35405;52.344;14.530;2023-02-17T09:10:25;100605.06;;;7.20;100.00
49055;BME280;35405;52.344;14.530;2023-02-17T09:12:50;100593.72;;;7.23;100.00
49055;BME280;35405;52.344;14.530;2023-02-17T09:15:16;100590.19;;;7.28;100.00
49055;BME280;35405;52.344;14.530;2023-02-17T09:17:41;100589.38;;;7.38;100.00
49055;BME280;35405;52.344;14.530;2023-02-17T09:20:06;100582.88;;;7.39;100.00
49055;BME280;35405;52.344;14.530;2023-02-17T09:22:32;100581.25;;;7.38;100.00
49055;BME280;35405;52.344;14.530;2023-02-17T09:24:57;100579.91;;;7.40;100.00
49055;BME280;35405;52.344;14.530;2023-02-17T09:27:22;100570.41;;;7.43;100.00
49055;BME280;35405;52.344;14.530;2023-02-17T09:29:48;100578.28;;;7.44;100.00
49055;BME280;35405;52.344;14.530;2023-02-17T09:32:13;100566.06;;;7.52;100.00
49055;BME280;35405;52.344;14.530;2023-02-17T09:34:38;100558.50;;;7.49;100.00
49055;BME280;35405;52.344;14.530;2023-02-17T09:37:08;100564.19;;;7.47;100.00
49055;BME280;35405;52.344;14.530;2023-02-17T09:39:34;100546.88;;;7.53;100.00
49055;BME280;35405;52.344;14.530;2023-02-17T09:42:16;100540.34;;;7.60;100.00
49055;BME280;35405;52.344;14.530;2023-02-17T09:44:42;100533.03;;;7.55;100.00
49055;BME280;35405;52.344;14.530;2023-02-17T09:47:19;100526.56;;;7.56;100.00
49055;BME280;35405;52.344;14.530;2023-02-17T09:49:47;100523.84;;;7.56;100.00
49055;BME280;35405;52.344;14.530;2023-02-17T09:52:17;100521.66;;;7.58;100.00
49055;BME280;35405;52.344;14.530;2023-02-17T09:54:56;100513.53;;;7.63;100.00
49055;BME280;35405;52.344;14.530;2023-02-17T09:57:24;100500.00;;;7.73;100.00
49055;BME280;35405;52.344;14.530;2023-02-17T09:59:53;100495.88;;;7.81;100.00
49055;BME280;35405;52.344;14.530;2023-02-17T10:02:24;100486.94;;;7.86;100.00
49055;BME280;35405;52.344;14.530;2023-02-17T10:04:51;100478.25;;;7.89;100.00
49055;BME280;35405;52.344;14.530;2023-02-17T10:07:24;100473.56;;;7.99;100.00
49055;BME280;35405;52.344;14.530;2023-02-17T10:10:13;100469.19;;;8.09;100.00
49055;BME280;35405;52.344;14.530;2023-02-17T10:12:43;100468.38;;;8.13;100.00
49055;BME280;35405;52.344;14.530;2023-02-17T10:15:15;100465.34;;;8.15;100.00
49055;BME280;35405;52.344;14.530;2023-02-17T10:23:06;100452.84;;;8.24;100.00
49055;BME280;35405;52.344;14.530;2023-02-17T10:25:51;100463.41;;;8.25;100.00
49055;BME280;35405;52.344;14.530;2023-02-17T10:30:53;100449.22;;;8.44;100.00
49055;BME280;35405;52.344;14.530;2023-02-17T10:38:38;100431.38;;;8.33;100.00
49055;BME280;35405;52.344;14.530;2023-02-17T10:41:08;100425.72;;;8.29;100.00
49055;BME280;35405;52.344;14.530;2023-02-17T10:43:36;100428.66;;;8.33;100.00
49055;BME280;35405;52.344;14.530;2023-02-17T10:46:02;100431.63;;;8.36;100.00
49055;BME280;35405;52.344;14.530;2023-02-17T10:48:32;100427.84;;;8.42;100.00
49055;BME280;35405;52.344;14.530;2023-02-17T10:50:59;100430.22;;;8.49;100.00
49055;BME280;35405;52.344;14.530;2023-02-17T10:53:26;100423.72;;;8.45;100.00
49055;BME280;35405;52.344;14.530;2023-02-17T11:01:04;100378.66;;;8.54;100.00
49055;BME280;35405;52.344;14.530;2023-02-17T11:03:30;100380.31;;;8.50;100.00
49055;BME280;35405;52.344;14.530;2023-02-17T11:08:36;100359.63;;;8.59;100.00
49055;BME280;35405;52.344;14.530;2023-02-17T11:11:05;100348.53;;;8.61;100.00
49055;BME280;35405;52.344;14.530;2023-02-17T11:16:24;100337.75;;;8.51;100.00
49055;BME280;35405;52.344;14.530;2023-02-17T11:18:50;100323.94;;;8.52;100.00
49055;BME280;35405;52.344;14.530;2023-02-17T11:21:16;100316.66;;;8.47;100.00
49055;BME280;35405;52.344;14.530;2023-02-17T11:23:53;100312.09;;;8.43;100.00
49055;BME280;35405;52.344;14.530;2023-02-17T11:26:23;100306.16;;;8.36;100.00
49055;BME280;35405;52.344;14.530;2023-02-17T11:28:49;100301.03;;;8.39;100.00
49055;BME280;35405;52.344;14.530;2023-02-17T11:31:24;100304.53;;;8.40;100.00
49055;BME280;35405;52.344;14.530;2023-02-17T11:33:51;100286.66;;;8.39;100.00
49055;BME280;35405;52.344;14.530;2023-02-17T11:36:26;100275.19;;;8.47;100.00
49055;BME280;35405;52.344;14.530;2023-02-17T11:38:52;100242.72;;;8.42;100.00
49055;BME280;35405;52.344;14.530;2023-02-17T11:41:17;100255.56;;;8.31;100.00
49055;BME280;35405;52.344;14.530;2023-02-17T11:43:52;100262.63;;;8.27;100.00
49055;BME280;35405;52.344;14.530;2023-02-17T11:46:23;100260.09;;;8.41;100.00
49055;BME280;35405;52.344;14.530;2023-02-17T11:56:22;100240.09;;;8.32;100.00
49055;BME280;35405;52.344;14.530;2023-02-17T12:09:02;100228.38;;;8.36;100.00
49055;BME280;35405;52.344;14.530;2023-02-17T12:16:32;100201.81;;;8.43;100.00
49055;BME280;35405;52.344;14.530;2023-02-17T12:19:03;100179.75;;;8.50;100.00
49055;BME280;35405;52.344;14.530;2023-02-17T12:26:42;100160.22;;;8.72;100.00
49055;BME280;35405;52.344;14.530;2023-02-17T12:37:17;100121.56;;;8.85;100.00
49055;BME280;35405;52.344;14.530;2023-02-17T12:39:45;100126.59;;;8.92;100.00
49055;BME280;35405;52.344;14.530;2023-02-17T12:42:19;100123.22;;;9.00;100.00
49055;BME280;35405;52.344;14.530;2023-02-17T12:44:48;100123.88;;;9.11;100.00
49055;BME280;35405;52.344;14.530;2023-02-17T12:47:15;100109.22;;;9.12;100.00
49055;BME280;35405;52.344;14.530;2023-02-17T12:49:47;100099.16;;;9.12;100.00
49055;BME280;35405;52.344;14.530;2023-02-17T12:52:16;100091.84;;;9.13;100.00
49055;BME280;35405;52.344;14.530;2023-02-17T12:54:49;100090.25;;;9.26;100.00
49055;BME280;35405;52.344;14.530;2023-02-17T12:57:31;100084.97;;;9.34;100.00
49055;BME280;35405;52.344;14.530;2023-02-17T13:00:02;100103.56;;;9.41;100.00
49055;BME280;35405;52.344;14.530;2023-02-17T13:02:35;100099.56;;;9.52;100.00
49055;BME280;35405;52.344;14.530;2023-02-17T13:05:01;100086.41;;;9.46;100.00
49055;BME280;35405;52.344;14.530;2023-02-17T13:09:56;100072.34;;;9.57;100.00
49055;BME280;35405;52.344;14.530;2023-02-17T13:14:50;100059.06;;;9.56;100.00
49055;BME280;35405;52.344;14.530;2023-02-17T13:17:26;100064.78;;;9.54;100.00
49055;BME280;35405;52.344;14.530;2023-02-17T13:20:03;100069.50;;;9.62;100.00
49055;BME280;35405;52.344;14.530;2023-02-17T13:22:28;100054.16;;;9.72;100.00
49055;BME280;35405;52.344;14.530;2023-02-17T13:24:54;100055.66;;;9.78;100.00
49055;BME280;35405;52.344;14.530;2023-02-17T13:27:20;100061.50;;;9.85;100.00
49055;BME280;35405;52.344;14.530;2023-02-17T13:29:45;100063.81;;;9.92;100.00
49055;BME280;35405;52.344;14.530;2023-02-17T13:32:11;100055.84;;;9.95;100.00
49055;BME280;35405;52.344;14.530;2023-02-17T13:37:14;100058.84;;;10.07;100.00
49055;BME280;35405;52.344;14.530;2023-02-17T13:39:40;100058.38;;;10.05;100.00
49055;BME280;35405;52.344;14.530;2023-02-17T13:42:27;100060.06;;;10.01;100.00
49055;BME280;35405;52.344;14.530;2023-02-17T13:44:51;100052.44;;;10.03;100.00
49055;BME280;35405;52.344;14.530;2023-02-17T13:47:29;100054.72;;;10.24;100.00
49055;BME280;35405;52.344;14.530;2023-02-17T13:49:58;100040.50;;;10.41;100.00
49055;BME280;35405;52.344;14.530;2023-02-17T13:52:27;100024.41;;;10.44;100.00
49055;BME280;35405;52.344;14.530;2023-02-17T13:54:57;100034.16;;;10.45;100.00
49055;BME280;35405;52.344;14.530;2023-02-17T13:59:48;100052.59;;;10.35;100.00
49055;BME280;35405;52.344;14.530;2023-02-17T14:02:19;100063.09;;;10.27;100.00
49055;BME280;35405;52.344;14.530;2023-02-17T14:04:45;100062.31;;;10.27;100.00
49055;BME280;35405;52.344;14.530;2023-02-17T14:07:10;100058.47;;;10.28;100.00
49055;BME280;35405;52.344;14.530;2023-02-17T14:09:36;100054.94;;;10.27;100.00
49055;BME280;35405;52.344;14.530;2023-02-17T14:12:02;100046.97;;;10.31;100.00
49055;BME280;35405;52.344;14.530;2023-02-17T14:14:28;100046.38;;;10.34;100.00
49055;BME280;35405;52.344;14.530;2023-02-17T14:16:56;100035.22;;;10.36;100.00
49055;BME280;35405;52.344;14.530;2023-02-17T14:19:21;100041.63;;;10.40;100.00
49055;BME280;35405;52.344;14.530;2023-02-17T14:24:38;100029.84;;;10.44;100.00
49055;BME280;35405;52.344;14.530;2023-02-17T14:27:07;100025.41;;;10.48;100.00
49055;BME280;35405;52.344;14.530;2023-02-17T14:29:43;100028.63;;;10.50;100.00
49055;BME280;35405;52.344;14.530;2023-02-17T14:34:53;100021.16;;;10.56;100.00
49055;BME280;35405;52.344;14.530;2023-02-17T14:37:21;100030.13;;;10.57;100.00
49055;BME280;35405;52.344;14.530;2023-02-17T14:39:47;100031.72;;;10.58;100.00
49055;BME280;35405;52.344;14.530;2023-02-17T14:42:12;100022.56;;;10.53;100.00
49055;BME280;35405;52.344;14.530;2023-02-17T14:44:37;100018.44;;;10.56;100.00
49055;BME280;35405;52.344;14.530;2023-02-17T14:47:02;100017.31;;;10.57;100.00
49055;BME280;35405;52.344;14.530;2023-02-17T14:49:28;100032.31;;;10.55;100.00
49055;BME280;35405;52.344;14.530;2023-02-17T14:51:53;100019.84;;;10.53;100.00
49055;BME280;35405;52.344;14.530;2023-02-17T14:54:18;100012.50;;;10.54;100.00
49055;BME280;35405;52.344;14.530;2023-02-17T14:56:45;100014.88;;;10.56;100.00
49055;BME280;35405;52.344;14.530;2023-02-17T14:59:12;100021.16;;;10.56;100.00
49055;BME280;35405;52.344;14.530;2023-02-17T15:01:37;100026.09;;;10.54;100.00
49055;BME280;35405;52.344;14.530;2023-02-17T15:04:02;100027.69;;;10.55;100.00
49055;BME280;35405;52.344;14.530;2023-02-17T15:06:36;100045.91;;;10.55;100.00
49055;BME280;35405;52.344;14.530;2023-02-17T15:09:02;100036.84;;;10.59;100.00
49055;BME280;35405;52.344;14.530;2023-02-17T15:11:29;100040.22;;;10.65;100.00
49055;BME280;35405;52.344;14.530;2023-02-17T15:13:55;100039.75;;;10.63;100.00
49055;BME280;35405;52.344;14.530;2023-02-17T15:16:20;100040.66;;;10.58;100.00
49055;BME280;35405;52.344;14.530;2023-02-17T15:18:45;100052.34;;;10.59;100.00
49055;BME280;35405;52.344;14.530;2023-02-17T15:21:27;100053.66;;;10.61;100.00
49055;BME280;35405;52.344;14.530;2023-02-17T15:23:53;100055.28;;;10.62;100.00
49055;BME280;35405;52.344;14.530;2023-02-17T15:26:18;100067.25;;;10.61;100.00
49055;BME280;35405;52.344;14.530;2023-02-17T15:28:43;100055.69;;;10.56;100.00
49055;BME280;35405;52.344;14.530;2023-02-17T15:31:09;100047.75;;;10.45;100.00
49055;BME280;35405;52.344;14.530;2023-02-17T15:33:35;100061.59;;;10.35;100.00
49055;BME280;35405;52.344;14.530;2023-02-17T15:36:00;100067.81;;;10.22;100.00
49055;BME280;35405;52.344;14.530;2023-02-17T15:38:25;100062.88;;;10.10;100.00
49055;BME280;35405;52.344;14.530;2023-02-17T15:40:51;100073.03;;;10.04;100.00
49055;BME280;35405;52.344;14.530;2023-02-17T15:43:20;100053.66;;;9.97;100.00
49055;BME280;35405;52.344;14.530;2023-02-17T15:45:46;100040.97;;;9.93;100.00
49055;BME280;35405;52.344;14.530;2023-02-17T15:48:13;100054.16;;;9.85;100.00
49055;BME280;35405;52.344;14.530;2023-02-17T15:50:42;100059.38;;;9.82;100.00
49055;BME280;35405;52.344;14.530;2023-02-17T15:53:07;100063.31;;;9.76;100.00
49055;BME280;35405;52.344;14.530;2023-02-17T15:55:33;100038.97;;;9.71;100.00
49055;BME280;35405;52.344;14.530;2023-02-17T15:58:00;100029.81;;;9.67;100.00
49055;BME280;35405;52.344;14.530;2023-02-17T16:00:27;100040.47;;;9.63;100.00
49055;BME280;35405;52.344;14.530;2023-02-17T16:02:53;100029.63;;;9.63;100.00
49055;BME280;35405;52.344;14.530;2023-02-17T16:05:18;100019.38;;;9.60;100.00
49055;BME280;35405;52.344;14.530;2023-02-17T16:07:44;100008.88;;;9.53;100.00
49055;BME280;35405;52.344;14.530;2023-02-17T16:10:10;100016.03;;;9.49;100.00
49055;BME280;35405;52.344;14.530;2023-02-17T16:12:36;100011.50;;;9.45;100.00
49055;BME280;35405;52.344;14.530;2023-02-17T16:15:02;100003.66;;;9.43;100.00
49055;BME280;35405;52.344;14.530;2023-02-17T16:17:27;100002.06;;;9.42;100.00
49055;BME280;35405;52.344;14.530;2023-02-17T16:19:52;99987.47;;;9.38;100.00
49055;BME280;35405;52.344;14.530;2023-02-17T16:22:17;99996.41;;;9.38;100.00
49055;BME280;35405;52.344;14.530;2023-02-17T16:24:43;99981.22;;;9.37;100.00
49055;BME280;35405;52.344;14.530;2023-02-17T16:27:09;99975.81;;;9.37;100.00
49055;BME280;35405;52.344;14.530;2023-02-17T16:29:36;99974.22;;;9.36;100.00
49055;BME280;35405;52.344;14.530;2023-02-17T16:32:01;99989.38;;;9.37;100.00
49055;BME280;35405;52.344;14.530;2023-02-17T16:34:26;99985.06;;;9.36;100.00
49055;BME280;35405;52.344;14.530;2023-02-17T16:36:56;99981.53;;;9.36;100.00
49055;BME280;35405;52.344;14.530;2023-02-17T16:39:22;99994.81;;;9.37;100.00
49055;BME280;35405;52.344;14.530;2023-02-17T16:41:48;99995.31;;;9.39;100.00
49055;BME280;35405;52.344;14.530;2023-02-17T16:44:14;99986.38;;;9.39;100.00
49055;BME280;35405;52.344;14.530;2023-02-17T16:46:43;99998.22;;;9.43;100.00
49055;BME280;35405;52.344;14.530;2023-02-17T16:49:22;100002.25;;;9.46;100.00
49055;BME280;35405;52.344;14.530;2023-02-17T16:51:49;100014.44;;;9.48;100.00
49055;BME280;35405;52.344;14.530;2023-02-17T16:54:15;100008.19;;;9.48;100.00
49055;BME280;35405;52.344;14.530;2023-02-17T16:56:42;100000.53;;;9.50;100.00
49055;BME280;35405;52.344;14.530;2023-02-17T16:59:12;100002.16;;;9.51;100.00
49055;BME280;35405;52.344;14.530;2023-02-17T17:01:37;99993.19;;;9.50;100.00
49055;BME280;35405;52.344;14.530;2023-02-17T17:04:02;100010.00;;;9.52;100.00
49055;BME280;35405;52.344;14.530;2023-02-17T17:06:28;99992.59;;;9.53;100.00
49055;BME280;35405;52.344;14.530;2023-02-17T17:08:53;100001.56;;;9.54;100.00
49055;BME280;35405;52.344;14.530;2023-02-17T17:11:20;99965.75;;;9.52;100.00
49055;BME280;35405;52.344;14.530;2023-02-17T17:13:46;99991.50;;;9.54;100.00
49055;BME280;35405;52.344;14.530;2023-02-17T17:18:39;99999.53;;;9.59;100.00
49055;BME280;35405;52.344;14.530;2023-02-17T17:21:04;99979.44;;;9.60;100.00
49055;BME280;35405;52.344;14.530;2023-02-17T17:23:29;99999.25;;;9.61;100.00
49055;BME280;35405;52.344;14.530;2023-02-17T17:25:55;99971.59;;;9.59;100.00
49055;BME280;35405;52.344;14.530;2023-02-17T17:28:20;99970.78;;;9.58;100.00
49055;BME280;35405;52.344;14.530;2023-02-17T17:30:45;99981.03;;;9.61;100.00
49055;BME280;35405;52.344;14.530;2023-02-17T17:33:11;99978.03;;;9.63;100.00
49055;BME280;35405;52.344;14.530;2023-02-17T17:35:36;99986.88;;;9.69;100.00
49055;BME280;35405;52.344;14.530;2023-02-17T17:38:02;99966.75;;;9.70;100.00
49055;BME280;35405;52.344;14.530;2023-02-17T17:40:28;99988.47;;;9.70;100.00
49055;BME280;35405;52.344;14.530;2023-02-17T17:42:54;99989.59;;;9.69;100.00
49055;BME280;35405;52.344;14.530;2023-02-17T17:45:19;99998.31;;;9.66;100.00
49055;BME280;35405;52.344;14.530;2023-02-17T17:47:46;99983.06;;;9.70;100.00
49055;BME280;35405;52.344;14.530;2023-02-17T17:50:13;100004.78;;;9.70;100.00
49055;BME280;35405;52.344;14.530;2023-02-17T17:52:39;100007.28;;;9.80;100.00
49055;BME280;35405;52.344;14.530;2023-02-17T17:55:05;100017.53;;;9.83;100.00
49055;BME280;35405;52.344;14.530;2023-02-17T17:57:30;100037.56;;;9.87;100.00
49055;BME280;35405;52.344;14.530;2023-02-17T17:59:55;100032.13;;;9.87;100.00
49055;BME280;35405;52.344;14.530;2023-02-17T18:02:20;100028.59;;;9.87;100.00
49055;BME280;35405;52.344;14.530;2023-02-17T18:04:46;100021.75;;;9.89;100.00
49055;BME280;35405;52.344;14.530;2023-02-17T18:07:11;100058.97;;;9.89;100.00
49055;BME280;35405;52.344;14.530;2023-02-17T18:09:36;100068.53;;;9.86;100.00
49055;BME280;35405;52.344;14.530;2023-02-17T18:12:11;100067.72;;;9.85;100.00
49055;BME280;35405;52.344;14.530;2023-02-17T18:14:38;100057.78;;;9.81;100.00
49055;BME280;35405;52.344;14.530;2023-02-17T18:17:05;100079.50;;;9.81;100.00
49055;BME280;35405;52.344;14.530;2023-02-17T18:19:31;100090.84;;;9.83;100.00
49055;BME280;35405;52.344;14.530;2023-02-17T18:25:00;100095.69;;;9.86;100.00
49055;BME280;35405;52.344;14.530;2023-02-17T18:27:25;100085.34;;;9.88;100.00
49055;BME280;35405;52.344;14.530;2023-02-17T18:29:53;100079.81;;;9.93;100.00
49055;BME280;35405;52.344;14.530;2023-02-17T18:32:18;100078.41;;;9.96;100.00
49055;BME280;35405;52.344;14.530;2023-02-17T18:34:45;100081.94;;;9.96;100.00
49055;BME280;35405;52.344;14.530;2023-02-17T18:37:11;100079.22;;;9.96;100.00
49055;BME280;35405;52.344;14.530;2023-02-17T18:39:36;100087.34;;;9.96;100.00
49055;BME280;35405;52.344;14.530;2023-02-17T18:42:01;100105.56;;;9.96;100.00
49055;BME280;35405;52.344;14.530;2023-02-17T18:44:27;100105.56;;;9.96;100.00
49055;BME280;35405;52.344;14.530;2023-02-17T18:46:52;100107.97;;;9.97;100.00
49055;BME280;35405;52.344;14.530;2023-02-17T18:49:17;100110.41;;;9.99;100.00
49055;BME280;35405;52.344;14.530;2023-02-17T18:51:42;100127.19;;;10.01;100.00
49055;BME280;35405;52.344;14.530;2023-02-17T18:54:07;100132.94;;;9.99;100.00
49055;BME280;35405;52.344;14.530;2023-02-17T18:56:35;100157.59;;;10.03;100.00
49055;BME280;35405;52.344;14.530;2023-02-17T18:59:00;100159.00;;;10.00;100.00
49055;BME280;35405;52.344;14.530;2023-02-17T19:01:32;100173.16;;;9.97;100.00
49055;BME280;35405;52.344;14.530;2023-02-17T19:03:57;100187.63;;;9.93;100.00
49055;BME280;35405;52.344;14.530;2023-02-17T19:06:24;100181.00;;;9.85;100.00
49055;BME280;35405;52.344;14.530;2023-02-17T19:08:49;100182.38;;;9.69;100.00
49055;BME280;35405;52.344;14.530;2023-02-17T19:11:15;100196.44;;;9.57;100.00
49055;BME280;35405;52.344;14.530;2023-02-17T19:13:40;100206.03;;;9.49;100.00
49055;BME280;35405;52.344;14.530;2023-02-17T19:16:07;100225.03;;;9.49;100.00
49055;BME280;35405;52.344;14.530;2023-02-17T19:18:32;100230.41;;;9.54;100.00
49055;BME280;35405;52.344;14.530;2023-02-17T19:20:58;100245.06;;;9.53;100.00
49055;BME280;35405;52.344;14.530;2023-02-17T19:23:23;100251.31;;;9.35;100.00
49055;BME280;35405;52.344;14.530;2023-02-17T19:25:48;100249.63;;;9.39;100.00
49055;BME280;35405;52.344;14.530;2023-02-17T19:28:13;100270.97;;;9.27;100.00
49055;BME280;35405;52.344;14.530;2023-02-17T19:30:38;100279.91;;;9.27;100.00
49055;BME280;35405;52.344;14.530;2023-02-17T19:33:04;100284.16;;;9.14;100.00
49055;BME280;35405;52.344;14.530;2023-02-17T19:35:29;100264.78;;;9.02;100.00
49055;BME280;35405;52.344;14.530;2023-02-17T19:37:54;100274.31;;;9.00;100.00
49055;BME280;35405;52.344;14.530;2023-02-17T19:40:19;100301.28;;;8.91;100.00
49055;BME280;35405;52.344;14.530;2023-02-17T19:42:44;100300.88;;;8.79;100.00
49055;BME280;35405;52.344;14.530;2023-02-17T19:45:10;100283.50;;;8.80;100.00
49055;BME280;35405;52.344;14.530;2023-02-17T19:47:35;100302.53;;;8.75;100.00
49055;BME280;35405;52.344;14.530;2023-02-17T19:50:00;100302.66;;;8.88;100.00
49055;BME280;35405;52.344;14.530;2023-02-17T19:52:26;100301.56;;;8.89;100.00
49055;BME280;35405;52.344;14.530;2023-02-17T19:54:51;100308.44;;;8.82;100.00
49055;BME280;35405;52.344;14.530;2023-02-17T19:57:16;100319.69;;;8.94;100.00
49055;BME280;35405;52.344;14.530;2023-02-17T19:59:42;100320.31;;;8.86;100.00
49055;BME280;35405;52.344;14.530;2023-02-17T20:02:10;100339.88;;;8.83;100.00
49055;BME280;35405;52.344;14.530;2023-02-17T20:04:36;100341.25;;;8.80;100.00
49055;BME280;35405;52.344;14.530;2023-02-17T20:07:01;100340.88;;;8.63;100.00
49055;BME280;35405;52.344;14.530;2023-02-17T20:09:26;100342.84;;;8.57;100.00
49055;BME280;35405;52.344;14.530;2023-02-17T20:11:51;100352.88;;;8.57;100.00
49055;BME280;35405;52.344;14.530;2023-02-17T20:14:17;100353.41;;;8.59;100.00
49055;BME280;35405;52.344;14.530;2023-02-17T20:16:42;100350.03;;;8.43;100.00
49055;BME280;35405;52.344;14.530;2023-02-17T20:19:07;100361.47;;;8.35;100.00
49055;BME280;35405;52.344;14.530;2023-02-17T20:21:34;100355.75;;;8.36;100.00
49055;BME280;35405;52.344;14.530;2023-02-17T20:23:59;100369.03;;;8.38;100.00
49055;BME280;35405;52.344;14.530;2023-02-17T20:26:27;100362.03;;;8.32;100.00
49055;BME280;35405;52.344;14.530;2023-02-17T20:28:52;100363.72;;;8.22;100.00
49055;BME280;35405;52.344;14.530;2023-02-17T20:31:18;100359.44;;;8.16;100.00
49055;BME280;35405;52.344;14.530;2023-02-17T20:33:43;100369.47;;;8.16;100.00
49055;BME280;35405;52.344;14.530;2023-02-17T20:36:08;100368.69;;;8.15;100.00
49055;BME280;35405;52.344;14.530;2023-02-17T20:38:34;100372.47;;;8.09;100.00
49055;BME280;35405;52.344;14.530;2023-02-17T20:41:01;100372.09;;;8.26;100.00
49055;BME280;35405;52.344;14.530;2023-02-17T20:43:27;100365.56;;;8.27;100.00
49055;BME280;35405;52.344;14.530;2023-02-17T20:45:52;100380.06;;;8.12;100.00
49055;BME280;35405;52.344;14.530;2023-02-17T20:48:17;100376.31;;;8.03;100.00
49055;BME280;35405;52.344;14.530;2023-02-17T20:50:43;100382.25;;;8.10;100.00
49055;BME280;35405;52.344;14.530;2023-02-17T20:53:08;100371.19;;;8.07;100.00
49055;BME280;35405;52.344;14.530;2023-02-17T20:55:33;100403.69;;;8.07;100.00
49055;BME280;35405;52.344;14.530;2023-02-17T20:57:58;100402.09;;;8.00;100.00
49055;BME280;35405;52.344;14.530;2023-02-17T21:00:24;100404.28;;;7.93;100.00
49055;BME280;35405;52.344;14.530;2023-02-17T21:02:50;100401.38;;;7.85;100.00
49055;BME280;35405;52.344;14.530;2023-02-17T21:05:16;100394.66;;;7.77;100.00